Time;durP1;ratioP1;P1;durP2;ratioP2;P2;SDS_P1;SDS_P2;PMS_P1;PMS_P2;Temp;Humidity;BMP_temperature;BMP_pressure;BME280_temperature;BME280_humidity;BME280_pressure;Samples;Min_cycle;Max_cycle;Signal;HPM_P1;HPM_P2
2021/07/14 00:00:59;;;;;;;5.05;4.55;;;14.70;99.90;;;;;;5031818;28;20236;-78
2021/07/14 00:03:26;;;;;;;4.85;4.45;;;14.60;99.90;;;;;;5016817;28;20202;-78
2021/07/14 00:05:54;;;;;;;4.78;4.38;;;14.60;99.90;;;;;;5015786;28;20300;-78
2021/07/14 00:08:21;;;;;;;4.30;3.97;;;14.60;99.90;;;;;;5026171;28;20286;-82
2021/07/14 00:10:48;;;;;;;5.80;4.90;;;14.50;99.90;;;;;;5035999;28;20229;-79
2021/07/14 00:13:27;;;;;;;4.60;4.30;;;14.40;99.90;;;;;;5038817;28;20248;-81
2021/07/14 00:24:07;;;;;;;4.80;4.40;;;14.40;99.90;;;;;;5022572;28;20211;-78
2021/07/14 00:26:34;;;;;;;5.30;4.90;;;14.40;99.90;;;;;;5015557;28;20300;-79
2021/07/14 00:29:05;;;;;;;5.18;4.78;;;14.40;99.90;;;;;;5015936;28;20707;-77
2021/07/14 00:31:38;;;;;;;5.25;4.75;;;14.30;99.90;;;;;;5015740;28;20309;-78
2021/07/14 00:34:05;;;;;;;6.05;4.68;;;14.30;99.90;;;;;;5015202;28;20302;-79
2021/07/14 00:36:31;;;;;;;5.72;5.22;;;14.30;99.90;;;;;;5015084;28;20213;-77
2021/07/14 00:38:58;;;;;;;5.10;4.70;;;14.20;99.90;;;;;;5021723;28;20377;-79
2021/07/14 00:41:25;;;;;;;6.70;5.25;;;14.20;99.90;;;;;;5027097;28;20239;-79
2021/07/14 00:43:52;;;;;;;4.82;4.43;;;14.20;99.90;;;;;;5034601;28;20220;-78
2021/07/14 00:46:25;;;;;;;6.10;5.60;;;14.30;99.90;;;;;;5029248;28;20211;-77
2021/07/14 00:48:54;;;;;;;5.28;4.78;;;14.30;99.90;;;;;;5014229;28;20291;-78
2021/07/14 00:51:21;;;;;;;5.78;5.25;;;14.30;99.90;;;;;;5014161;28;20202;-77
2021/07/14 00:53:48;;;;;;;6.25;4.72;;;14.30;99.90;;;;;;5014224;28;20296;-77
2021/07/14 00:56:15;;;;;;;5.30;4.80;;;14.20;99.90;;;;;;5014008;28;20205;-78
2021/07/14 00:58:42;;;;;;;7.18;4.80;;;14.20;99.90;;;;;;5014273;28;20299;-78
2021/07/14 01:01:10;;;;;;;4.75;4.38;;;14.20;99.90;;;;;;5013728;28;20307;-78
2021/07/14 01:03:45;;;;;;;5.28;4.70;;;14.20;99.90;;;;;;5013919;28;20216;-79
2021/07/14 01:06:21;;;;;;;6.55;4.68;;;14.20;99.90;;;;;;5014004;28;20214;-77
2021/07/14 01:08:55;;;;;;;4.93;4.53;;;14.10;99.90;;;;;;5014463;28;20291;-78
2021/07/14 01:11:24;;;;;;;7.43;5.30;;;14.10;99.90;;;;;;5014226;28;20304;-78
2021/07/14 01:13:58;;;;;;;7.07;5.28;;;14.20;99.90;;;;;;5014226;28;20222;-77
2021/07/14 01:16:30;;;;;;;6.95;5.75;;;14.20;99.90;;;;;;5014507;28;20293;-78
2021/07/14 01:19:14;;;;;;;8.60;5.75;;;14.20;99.90;;;;;;5027262;28;20684;-77
2021/07/14 01:21:45;;;;;;;6.47;5.75;;;14.30;99.90;;;;;;5014783;28;20691;-77
2021/07/14 01:24:16;;;;;;;6.50;5.90;;;14.40;99.90;;;;;;5013887;28;20225;-77
2021/07/14 01:27:06;;;;;;;7.32;6.60;;;14.40;99.90;;;;;;5013632;28;20210;-77
2021/07/14 01:29:35;;;;;;;5.68;5.15;;;14.50;99.90;;;;;;5013723;28;20228;-78
2021/07/14 01:32:04;;;;;;;7.53;5.43;;;14.50;99.90;;;;;;5014169;28;20318;-78
2021/07/14 01:34:33;;;;;;;6.70;6.05;;;14.60;99.90;;;;;;5014186;28;20209;-81
2021/07/14 01:37:03;;;;;;;7.50;5.15;;;14.60;99.90;;;;;;5015073;28;20616;-77
2021/07/14 01:39:34;;;;;;;4.95;4.55;;;14.50;99.90;;;;;;5032654;28;20218;-82
2021/07/14 01:42:05;;;;;;;5.82;5.28;;;14.50;99.90;;;;;;5037370;28;20233;-80
2021/07/14 01:44:32;;;;;;;6.93;5.50;;;14.50;99.90;;;;;;5014902;28;20209;-77
2021/07/14 01:47:01;;;;;;;4.97;4.13;;;14.50;99.90;;;;;;5015003;28;20221;-79
2021/07/14 01:49:31;;;;;;;5.47;4.97;;;14.50;99.90;;;;;;5017443;28;20289;-79
2021/07/14 01:52:02;;;;;;;5.60;5.20;;;14.50;99.90;;;;;;5016707;28;20229;-79
2021/07/14 01:54:30;;;;;;;6.60;4.93;;;14.50;99.90;;;;;;5015331;28;20259;-79
2021/07/14 01:56:59;;;;;;;7.22;5.43;;;14.40;99.90;;;;;;5015244;28;20249;-80
2021/07/14 01:59:31;;;;;;;5.15;4.75;;;14.50;99.90;;;;;;5015251;28;20303;-77
2021/07/14 02:02:00;;;;;;;4.95;4.43;;;14.60;99.90;;;;;;5013559;28;20627;-77
2021/07/14 02:04:33;;;;;;;10.98;4.88;;;14.60;99.90;;;;;;5015933;28;20216;-79
2021/07/14 02:07:06;;;;;;;5.53;4.60;;;14.50;99.90;;;;;;5014982;28;20223;-77
2021/07/14 02:09:34;;;;;;;6.60;5.03;;;14.50;99.90;;;;;;5012911;28;20656;-77
2021/07/14 02:12:03;;;;;;;5.43;4.95;;;14.50;99.90;;;;;;5013982;28;20317;-76
2021/07/14 02:14:34;;;;;;;5.85;5.30;;;14.50;99.90;;;;;;5017050;28;20209;-77
2021/07/14 02:17:05;;;;;;;4.97;4.20;;;14.50;99.90;;;;;;5013052;28;20216;-77
2021/07/14 02:19:34;;;;;;;10.20;5.60;;;14.40;99.90;;;;;;5013120;28;20232;-78
2021/07/14 02:22:02;;;;;;;5.57;4.50;;;14.30;99.90;;;;;;5012863;28;20732;-76
2021/07/14 02:24:32;;;;;;;6.47;5.05;;;14.30;99.90;;;;;;5012904;28;20213;-77
2021/07/14 02:27:04;;;;;;;4.97;4.57;;;14.30;99.90;;;;;;5012818;28;20202;-77
2021/07/14 02:29:34;;;;;;;8.77;4.78;;;14.30;99.90;;;;;;5012846;28;20743;-77
2021/07/14 02:32:01;;;;;;;4.53;4.20;;;14.30;99.90;;;;;;5012673;28;20204;-78
2021/07/14 02:34:28;;;;;;;5.10;4.70;;;14.40;99.90;;;;;;5019203;28;20211;-77
2021/07/14 02:36:56;;;;;;;5.43;4.55;;;14.40;99.90;;;;;;5016226;28;20546;-76
2021/07/14 02:39:25;;;;;;;5.25;4.55;;;14.40;99.90;;;;;;5013031;28;20731;-77
2021/07/14 02:42:00;;;;;;;5.50;4.35;;;14.40;99.90;;;;;;5012929;28;20292;-77
2021/07/14 02:44:27;;;;;;;4.97;4.57;;;14.40;99.90;;;;;;5015479;28;20219;-79
2021/07/14 02:46:59;;;;;;;7.10;4.97;;;14.30;99.90;;;;;;5016371;28;20202;-80
2021/07/14 02:49:28;;;;;;;5.45;4.72;;;14.30;99.90;;;;;;5015000;28;20278;-79
2021/07/14 02:51:57;;;;;;;4.75;4.25;;;14.30;99.90;;;;;;5014773;28;20656;-81
2021/07/14 02:54:26;;;;;;;4.57;4.28;;;14.30;99.90;;;;;;5015339;28;20560;-81
2021/07/14 02:57:00;;;;;;;6.15;4.70;;;14.20;99.90;;;;;;5014038;28;20555;-78
2021/07/14 02:59:30;;;;;;;7.43;5.55;;;14.20;99.90;;;;;;5012214;28;20223;-77
2021/07/14 03:02:00;;;;;;;5.80;5.20;;;14.20;99.90;;;;;;5012507;28;20217;-78
2021/07/14 03:04:29;;;;;;;5.10;4.70;;;14.20;99.90;;;;;;5012100;28;20209;-78
2021/07/14 03:06:57;;;;;;;5.07;4.60;;;14.20;99.90;;;;;;5029632;28;20198;-79
2021/07/14 03:09:32;;;;;;;5.60;5.10;;;14.20;99.90;;;;;;5025193;28;20234;-77
2021/07/14 03:12:00;;;;;;;5.30;4.85;;;14.20;99.90;;;;;;5016194;28;20211;-77
2021/07/14 03:14:28;;;;;;;5.32;4.93;;;14.20;99.90;;;;;;5015776;28;20217;-77
2021/07/14 03:16:55;;;;;;;5.82;5.00;;;14.20;99.90;;;;;;5015968;28;20390;-77
2021/07/14 03:19:26;;;;;;;5.00;4.60;;;14.10;99.90;;;;;;5015765;28;20312;-78
2021/07/14 03:21:54;;;;;;;7.20;5.38;;;14.20;99.90;;;;;;5016237;28;20299;-77
2021/07/14 03:24:22;;;;;;;5.80;5.20;;;14.20;99.90;;;;;;5015624;28;20737;-78
2021/07/14 03:26:49;;;;;;;5.65;5.15;;;14.20;99.90;;;;;;5016382;28;20220;-78
2021/07/14 03:29:17;;;;;;;7.10;5.72;;;14.20;99.90;;;;;;5015445;28;20282;-78
2021/07/14 03:31:46;;;;;;;8.70;6.22;;;14.20;99.90;;;;;;5018191;28;20588;-80
2021/07/14 03:34:13;;;;;;;5.45;5.05;;;14.30;99.90;;;;;;5019978;28;20336;-80
2021/07/14 03:36:43;;;;;;;7.22;5.15;;;14.30;99.90;;;;;;5017777;28;20309;-79
2021/07/14 03:39:11;;;;;;;5.35;4.85;;;14.30;99.90;;;;;;5018384;28;20232;-78
2021/07/14 03:41:39;;;;;;;5.93;5.38;;;14.30;99.90;;;;;;5017248;28;20201;-78
2021/07/14 03:44:08;;;;;;;5.93;4.70;;;14.40;99.90;;;;;;5015761;28;20210;-78
2021/07/14 03:46:36;;;;;;;5.38;4.90;;;14.40;99.90;;;;;;5016020;28;20261;-76
2021/07/14 03:49:04;;;;;;;7.03;5.03;;;14.50;99.90;;;;;;5025491;28;20233;-79
2021/07/14 03:51:32;;;;;;;5.38;4.90;;;14.50;99.90;;;;;;5033255;28;20233;-78
2021/07/14 03:54:01;;;;;;;4.30;3.90;;;14.50;99.90;;;;;;5023115;28;20313;-78
2021/07/14 03:56:29;;;;;;;5.45;4.95;;;14.40;99.90;;;;;;5015988;28;20662;-78
2021/07/14 03:58:56;;;;;;;5.43;4.78;;;14.40;99.90;;;;;;5015504;28;20696;-78
2021/07/14 04:01:24;;;;;;;6.68;4.97;;;14.40;99.90;;;;;;5016009;28;20208;-77
2021/07/14 04:03:52;;;;;;;6.00;5.40;;;14.40;99.90;;;;;;5021033;28;20202;-81
2021/07/14 04:06:21;;;;;;;5.35;4.75;;;14.40;99.90;;;;;;5015416;28;20614;-77
2021/07/14 04:09:05;;;;;;;4.45;4.15;;;14.40;99.90;;;;;;5015482;28;20209;-78
2021/07/14 04:11:34;;;;;;;4.70;4.30;;;14.50;99.90;;;;;;5022402;28;20217;-81
2021/07/14 04:14:01;;;;;;;6.10;5.18;;;14.50;99.90;;;;;;5036244;28;20233;-82
2021/07/14 04:16:29;;;;;;;5.32;4.93;;;14.60;99.90;;;;;;5036884;28;20209;-81
2021/07/14 04:18:56;;;;;;;5.20;4.80;;;14.60;99.90;;;;;;5024598;28;20217;-80
2021/07/14 04:21:23;;;;;;;10.43;5.25;;;14.60;99.90;;;;;;5027446;28;20268;-80
2021/07/14 04:23:50;;;;;;;9.07;5.38;;;14.60;99.90;;;;;;5034076;28;20219;-79
2021/07/14 04:26:17;;;;;;;5.38;4.88;;;14.70;99.90;;;;;;5034561;28;20222;-77
2021/07/14 04:28:45;;;;;;;5.60;4.95;;;14.70;99.90;;;;;;5034185;28;20292;-81
2021/07/14 04:31:12;;;;;;;5.13;4.72;;;14.80;99.90;;;;;;5032073;28;20240;-79
2021/07/14 04:33:41;;;;;;;4.75;4.20;;;14.90;99.90;;;;;;5037976;28;20269;-78
2021/07/14 04:36:08;;;;;;;5.70;5.20;;;15.00;99.90;;;;;;5026264;28;20209;-79
2021/07/14 04:38:35;;;;;;;5.10;4.60;;;15.10;99.90;;;;;;5033145;28;20207;-78
2021/07/14 04:41:02;;;;;;;9.38;4.53;;;15.20;99.90;;;;;;5038036;28;20230;-79
2021/07/14 04:43:29;;;;;;;6.30;4.68;;;15.20;99.90;;;;;;5026751;28;20298;-80
2021/07/14 04:45:58;;;;;;;4.80;4.40;;;15.20;99.90;;;;;;5020178;28;20308;-80
2021/07/14 04:48:25;;;;;;;5.40;5.00;;;15.10;99.90;;;;;;5022159;28;20239;-80
2021/07/14 04:50:52;;;;;;;5.85;5.35;;;15.10;99.90;;;;;;5020591;28;20254;-78
2021/07/14 04:53:19;;;;;;;5.63;5.05;;;15.10;99.90;;;;;;5023237;28;20294;-78
2021/07/14 04:55:46;;;;;;;5.70;5.15;;;15.10;99.90;;;;;;5022863;28;20242;-80
2021/07/14 04:58:13;;;;;;;5.20;4.47;;;15.20;99.90;;;;;;5029707;28;20209;-79
2021/07/14 05:00:40;;;;;;;6.57;5.13;;;15.20;99.90;;;;;;5022990;28;20226;-80
2021/07/14 05:03:08;;;;;;;5.38;4.85;;;15.30;99.90;;;;;;5019954;28;20202;-79
2021/07/14 05:05:35;;;;;;;5.00;4.60;;;15.40;99.90;;;;;;5026501;28;20214;-78
2021/07/14 05:08:06;;;;;;;4.95;4.55;;;15.50;99.90;;;;;;5036814;28;20213;-77
2021/07/14 05:10:33;;;;;;;5.00;4.50;;;15.50;99.90;;;;;;5032801;28;20232;-79
2021/07/14 05:13:00;;;;;;;8.25;4.32;;;15.60;99.70;;;;;;5030615;28;20248;-77
2021/07/14 05:15:27;;;;;;;5.70;4.43;;;15.60;99.00;;;;;;5018932;28;20234;-79
2021/07/14 05:17:54;;;;;;;7.15;4.60;;;15.70;98.30;;;;;;5016570;28;20677;-77
2021/07/14 05:20:22;;;;;;;4.95;4.50;;;15.80;97.90;;;;;;5017083;28;20663;-78
2021/07/14 05:22:49;;;;;;;4.30;3.90;;;15.80;97.30;;;;;;5018718;28;20242;-80
2021/07/14 05:25:16;;;;;;;6.30;4.68;;;15.90;97.30;;;;;;5023490;28;20477;-78
2021/07/14 05:27:43;;;;;;;4.73;4.33;;;15.90;96.40;;;;;;5018527;28;20221;-79
2021/07/14 05:30:12;;;;;;;6.43;5.82;;;15.90;96.50;;;;;;5017982;28;20985;-80
2021/07/14 05:32:39;;;;;;;5.83;4.00;;;15.90;96.40;;;;;;5017791;28;20227;-78
2021/07/14 05:35:07;;;;;;;7.47;4.90;;;15.90;96.30;;;;;;5018835;28;20482;-78
2021/07/14 05:37:35;;;;;;;5.70;4.20;;;16.00;96.20;;;;;;5017742;28;20970;-80
2021/07/14 05:40:03;;;;;;;4.87;4.37;;;15.90;95.60;;;;;;5017775;28;20523;-79
2021/07/14 05:42:30;;;;;;;5.57;5.03;;;16.00;95.00;;;;;;5018055;28;20454;-79
2021/07/14 05:44:56;;;;;;;7.30;5.10;;;16.00;94.70;;;;;;5017423;28;21614;-80
2021/07/14 05:47:24;;;;;;;12.60;4.30;;;16.00;94.30;;;;;;5021058;28;20502;-81
2021/07/14 05:49:51;;;;;;;5.00;4.60;;;16.10;94.20;;;;;;5028942;28;21009;-77
2021/07/14 05:52:17;;;;;;;6.70;4.23;;;16.10;94.00;;;;;;5020878;28;20529;-77
2021/07/14 05:54:46;;;;;;;5.60;4.73;;;16.20;93.80;;;;;;5017853;28;20859;-78
2021/07/14 05:57:13;;;;;;;4.70;4.30;;;16.20;93.10;;;;;;5016367;28;20552;-78
2021/07/14 05:59:39;;;;;;;5.33;4.07;;;16.30;92.90;;;;;;5016201;28;20635;-77
2021/07/14 06:02:08;;;;;;;4.50;3.77;;;16.40;92.60;;;;;;5015164;28;20546;-76
2021/07/14 06:04:34;;;;;;;6.20;4.37;;;16.50;92.10;;;;;;5015610;28;20516;-77
2021/07/14 06:07:01;;;;;;;5.03;4.40;;;16.50;91.30;;;;;;5014150;28;20544;-77
2021/07/14 06:09:28;;;;;;;7.00;4.40;;;16.50;90.60;;;;;;5013452;28;20477;-77
2021/07/14 06:11:56;;;;;;;4.50;4.10;;;16.50;90.30;;;;;;5013623;28;20553;-77
2021/07/14 06:14:23;;;;;;;5.63;4.50;;;16.60;90.30;;;;;;5014681;28;20601;-79
2021/07/14 06:16:51;;;;;;;5.63;3.77;;;16.50;90.70;;;;;;5013517;28;20548;-77
2021/07/14 06:19:18;;;;;;;4.63;4.20;;;16.50;90.60;;;;;;5013607;28;20517;-77
2021/07/14 06:21:46;;;;;;;6.43;4.40;;;16.60;90.70;;;;;;5013660;28;20432;-76
2021/07/14 06:24:13;;;;;;;5.43;4.68;;;16.60;90.60;;;;;;5012904;28;20550;-77
2021/07/14 06:26:40;;;;;;;5.40;4.00;;;16.60;90.30;;;;;;5013144;28;20295;-75
2021/07/14 06:29:09;;;;;;;10.67;4.47;;;16.60;90.70;;;;;;5013495;28;20589;-77
2021/07/14 06:31:36;;;;;;;5.10;4.00;;;16.70;90.70;;;;;;5013419;28;20456;-76
2021/07/14 06:34:02;;;;;;;5.07;4.10;;;17.00;90.40;;;;;;5029439;28;20522;-79
2021/07/14 06:36:30;;;;;;;5.47;4.30;;;17.00;87.30;;;;;;5030741;28;20969;-78
2021/07/14 06:39:01;;;;;;;4.23;3.80;;;17.00;86.40;;;;;;5031923;28;20518;-77
2021/07/14 06:41:28;;;;;;;5.30;4.03;;;17.00;88.40;;;;;;5031108;28;20522;-78
2021/07/14 06:43:59;;;;;;;5.93;4.10;;;17.10;87.70;;;;;;5030606;28;20546;-80
2021/07/14 06:46:27;;;;;;;5.70;4.10;;;17.20;87.10;;;;;;5034467;28;20453;-79
2021/07/14 06:48:55;;;;;;;7.30;4.37;;;17.30;86.20;;;;;;5033347;28;20457;-79
2021/07/14 06:51:22;;;;;;;4.70;4.20;;;17.40;85.50;;;;;;5025253;28;21322;-79
2021/07/14 06:53:49;;;;;;;4.73;4.33;;;17.40;85.40;;;;;;5022161;28;20522;-77
2021/07/14 06:56:16;;;;;;;9.93;5.80;;;17.40;84.10;;;;;;5034009;28;20462;-77
2021/07/14 06:58:43;;;;;;;4.33;3.87;;;17.40;83.00;;;;;;5043721;28;20472;-75
2021/07/14 07:01:11;;;;;;;6.77;4.00;;;17.40;83.00;;;;;;5048071;28;20515;-78
2021/07/14 07:03:40;;;;;;;5.50;3.67;;;17.50;83.10;;;;;;5054298;28;20450;-78
2021/07/14 07:06:07;;;;;;;4.03;3.27;;;17.60;83.20;;;;;;5057897;28;20499;-80
2021/07/14 07:08:35;;;;;;;7.27;3.57;;;17.60;81.60;;;;;;5057750;28;20450;-79
2021/07/14 07:11:03;;;;;;;9.07;3.97;;;17.50;79.90;;;;;;5038399;28;20473;-77
2021/07/14 07:13:30;;;;;;;4.23;3.30;;;17.40;80.10;;;;;;5041999;28;20552;-79
2021/07/14 07:15:58;;;;;;;4.53;4.13;;;17.40;81.50;;;;;;5045439;28;20428;-81
2021/07/14 07:18:26;;;;;;;5.47;3.53;;;17.40;80.70;;;;;;5047239;28;20933;-79
2021/07/14 07:20:55;;;;;;;3.90;3.50;;;17.30;81.20;;;;;;5046223;28;20478;-80
2021/07/14 07:23:22;;;;;;;3.73;3.43;;;17.30;81.10;;;;;;5047219;28;20437;-80
2021/07/14 07:25:49;;;;;;;4.23;3.83;;;17.30;81.20;;;;;;5058089;28;20521;-80
2021/07/14 07:28:18;;;;;;;5.60;4.03;;;17.40;80.60;;;;;;5057395;28;20453;-81
2021/07/14 07:30:45;;;;;;;4.00;3.57;;;17.40;80.40;;;;;;5057683;28;20542;-82
2021/07/14 07:33:12;;;;;;;3.63;3.37;;;17.40;80.10;;;;;;5058185;28;20441;-81
2021/07/14 07:35:42;;;;;;;5.50;3.57;;;17.40;80.50;;;;;;5053094;28;20485;-81
2021/07/14 07:38:10;;;;;;;5.50;3.60;;;17.30;79.60;;;;;;5046949;28;20533;-80
2021/07/14 07:40:38;;;;;;;4.77;3.70;;;17.20;79.50;;;;;;5051009;28;20486;-80
2021/07/14 07:43:05;;;;;;;6.30;4.23;;;17.10;80.90;;;;;;5054998;28;20468;-80
2021/07/14 07:45:32;;;;;;;9.43;4.90;;;17.20;82.20;;;;;;5044194;28;20458;-80
2021/07/14 07:47:59;;;;;;;5.13;3.80;;;17.30;82.90;;;;;;5047784;28;20453;-79
2021/07/14 07:50:27;;;;;;;4.30;3.30;;;17.30;80.20;;;;;;5044835;28;20587;-80
2021/07/14 07:52:54;;;;;;;8.43;4.33;;;17.30;80.40;;;;;;5045675;28;20454;-78
2021/07/14 07:55:22;;;;;;;4.17;3.77;;;17.30;80.60;;;;;;5042359;28;20572;-79
2021/07/14 07:57:49;;;;;;;4.53;4.13;;;17.30;80.10;;;;;;5044572;28;20872;-81
2021/07/14 08:00:19;;;;;;;5.30;4.23;;;17.30;80.70;;;;;;5050471;28;20492;-80
2021/07/14 08:02:46;;;;;;;7.37;3.90;;;17.30;81.00;;;;;;5046434;28;20463;-81
2021/07/14 08:05:13;;;;;;;4.40;3.70;;;17.40;81.70;;;;;;5033038;28;20452;-79
2021/07/14 08:07:40;;;;;;;5.30;3.93;;;17.50;81.90;;;;;;5028476;28;20489;-79
2021/07/14 08:10:08;;;;;;;4.27;3.70;;;17.60;81.00;;;;;;5028172;28;20467;-80
2021/07/14 08:12:36;;;;;;;4.20;3.80;;;17.60;81.10;;;;;;5029560;28;20484;-79
2021/07/14 08:15:04;;;;;;;4.10;3.70;;;17.60;81.10;;;;;;5024030;28;20518;-79
2021/07/14 08:17:31;;;;;;;7.00;4.73;;;17.70;81.70;;;;;;5019685;28;20458;-79
2021/07/14 08:19:58;;;;;;;4.90;4.10;;;17.60;83.20;;;;;;5015412;28;20496;-79
2021/07/14 08:22:25;;;;;;;7.83;4.10;;;17.40;85.30;;;;;;5001679;28;20483;-80
2021/07/14 08:24:52;;;;;;;5.53;4.23;;;17.50;85.70;;;;;;5003750;28;20444;-81
2021/07/14 08:27:20;;;;;;;4.80;4.30;;;17.50;86.40;;;;;;5002990;28;20492;-80
2021/07/14 08:29:48;;;;;;;5.37;4.03;;;17.50;86.40;;;;;;5002026;28;20557;-79
2021/07/14 08:32:15;;;;;;;4.70;4.30;;;17.50;87.90;;;;;;5006806;28;20467;-80
2021/07/14 08:34:42;;;;;;;5.10;4.60;;;17.40;88.90;;;;;;5009223;28;20502;-80
2021/07/14 08:37:09;;;;;;;4.90;4.50;;;17.30;90.40;;;;;;5015097;28;20924;-81
2021/07/14 08:39:37;;;;;;;5.70;5.00;;;17.40;90.60;;;;;;5012880;28;20480;-81
2021/07/14 08:42:05;;;;;;;4.77;4.27;;;17.30;90.90;;;;;;5007627;28;20516;-81
2021/07/14 08:44:34;;;;;;;9.97;4.80;;;17.30;92.10;;;;;;5010480;28;20455;-81
2021/07/14 08:47:03;;;;;;;5.30;4.80;;;17.30;92.20;;;;;;5011713;28;20466;-81
2021/07/14 08:49:30;;;;;;;5.47;4.97;;;17.30;92.60;;;;;;5006915;28;20558;-80
2021/07/14 08:51:58;;;;;;;5.83;5.23;;;17.20;92.80;;;;;;4999990;28;20456;-80
2021/07/14 08:54:26;;;;;;;6.20;4.60;;;17.30;93.60;;;;;;4999125;28;20549;-81
2021/07/14 08:56:52;;;;;;;9.70;5.83;;;17.20;93.00;;;;;;5005123;28;20488;-83
2021/07/14 08:59:20;;;;;;;5.87;5.37;;;17.10;94.20;;;;;;5005080;28;20507;-81
2021/07/14 09:01:48;;;;;;;13.97;6.30;;;17.20;95.30;;;;;;5005852;28;20562;-82
2021/07/14 09:04:17;;;;;;;5.67;5.17;;;17.10;96.00;;;;;;5003185;28;20491;-82
2021/07/14 09:06:44;;;;;;;5.93;5.33;;;17.10;96.20;;;;;;5001104;28;20490;-80
2021/07/14 09:09:11;;;;;;;7.63;5.40;;;17.10;96.60;;;;;;4997934;28;20903;-79
2021/07/14 09:11:51;;;;;;;6.33;5.70;;;17.10;97.20;;;;;;4995171;28;20467;-79
2021/07/14 09:14:27;;;;;;;6.50;5.83;;;17.00;97.80;;;;;;4996587;28;20525;-80
2021/07/14 09:16:54;;;;;;;6.20;5.53;;;17.10;98.60;;;;;;4997259;28;20494;-80
2021/07/14 09:19:27;;;;;;;6.90;6.20;;;17.20;99.50;;;;;;5003740;28;20511;-81
2021/07/14 09:21:56;;;;;;;6.57;5.70;;;17.20;99.50;;;;;;5002398;28;20486;-82
2021/07/14 09:24:26;;;;;;;6.83;6.03;;;17.30;99.70;;;;;;5002296;28;20262;-80
2021/07/14 09:26:53;;;;;;;7.50;5.97;;;17.30;99.90;;;;;;5003014;28;20467;-81
2021/07/14 09:29:20;;;;;;;6.03;5.13;;;17.40;99.70;;;;;;5004324;28;20511;-79
2021/07/14 09:31:47;;;;;;;7.70;6.10;;;17.40;99.70;;;;;;5002252;28;20491;-81
2021/07/14 09:34:30;;;;;;;8.90;6.30;;;17.30;99.20;;;;;;5005445;28;20983;-79
2021/07/14 09:37:01;;;;;;;6.93;6.23;;;17.40;99.90;;;;;;4998977;28;20940;-80
2021/07/14 09:39:32;;;;;;;6.03;5.17;;;17.40;99.90;;;;;;5001726;28;20566;-81
2021/07/14 09:42:05;;;;;;;6.53;5.80;;;17.40;99.90;;;;;;5001388;28;20488;-81
2021/07/14 09:44:32;;;;;;;7.00;6.30;;;17.50;99.90;;;;;;4998838;28;20494;-80
2021/07/14 09:47:13;;;;;;;8.20;5.97;;;17.60;99.90;;;;;;4999370;28;20744;-79
2021/07/14 09:49:41;;;;;;;6.80;6.30;;;17.70;99.90;;;;;;4997416;28;20550;-80
2021/07/14 09:52:10;;;;;;;6.40;5.90;;;17.80;99.90;;;;;;5000857;28;20460;-81
2021/07/14 09:54:38;;;;;;;6.03;5.53;;;17.90;98.90;;;;;;5004497;28;20534;-80
2021/07/14 09:57:10;;;;;;;6.43;5.83;;;17.90;98.20;;;;;;4997331;28;20542;-79
2021/07/14 09:59:37;;;;;;;6.73;5.23;;;17.90;97.50;;;;;;5004634;28;20574;-79
2021/07/14 10:02:05;;;;;;;8.30;5.80;;;17.90;98.10;;;;;;5029101;28;20466;-80
2021/07/14 10:04:33;;;;;;;5.63;5.10;;;17.90;98.00;;;;;;5033161;28;20455;-80
2021/07/14 10:07:09;;;;;;;6.90;5.60;;;18.00;97.30;;;;;;5022775;28;20482;-81
2021/07/14 10:09:37;;;;;;;5.33;4.83;;;18.00;95.20;;;;;;5023474;28;20909;-80
2021/07/14 10:12:27;;;;;;;7.20;5.53;;;18.00;96.00;;;;;;5018788;28;20434;-79
2021/07/14 10:14:58;;;;;;;5.47;5.07;;;18.00;96.00;;;;;;5030123;28;20494;-80
2021/07/14 10:17:38;;;;;;;6.43;5.83;;;18.20;96.60;;;;;;5062382;22;20435;-81
2021/07/14 10:20:35;;;;;;;5.50;5.00;;;18.30;96.40;;;;;;5051369;28;20479;-80
2021/07/14 10:23:05;;;;;;;5.37;4.90;;;18.50;95.90;;;;;;5028678;28;20466;-81
2021/07/14 10:25:34;;;;;;;6.10;5.53;;;18.60;94.80;;;;;;5044543;28;20514;-80
2021/07/14 10:28:02;;;;;;;6.00;5.40;;;18.60;93.90;;;;;;5050386;28;20458;-83
2021/07/14 10:30:30;;;;;;;6.10;5.50;;;18.70;93.60;;;;;;5040420;28;20497;-81
2021/07/14 10:32:58;;;;;;;4.57;4.13;;;18.90;93.10;;;;;;5040786;28;20452;-84
2021/07/14 10:35:27;;;;;;;5.70;5.20;;;19.00;92.30;;;;;;5041150;28;20495;-84
2021/07/14 10:37:57;;;;;;;5.97;4.77;;;19.00;91.60;;;;;;5038113;28;20461;-85
2021/07/14 10:40:26;;;;;;;5.20;4.70;;;19.00;90.20;;;;;;5054528;28;20457;-84
2021/07/14 10:42:55;;;;;;;5.60;4.50;;;19.00;89.30;;;;;;5054686;28;20451;-85
2021/07/14 10:45:22;;;;;;;6.50;5.00;;;19.10;90.00;;;;;;5043899;28;20493;-87
2021/07/14 10:47:53;;;;;;;4.50;4.10;;;19.00;88.70;;;;;;5037601;28;20526;-88
2021/07/14 10:50:21;;;;;;;5.63;5.13;;;19.00;89.20;;;;;;5036899;28;21031;-87
2021/07/14 10:52:48;;;;;;;7.10;4.73;;;19.10;90.80;;;;;;5035098;28;20456;-86
2021/07/14 10:55:19;;;;;;;4.63;4.23;;;19.30;87.00;;;;;;5043700;28;20470;-86
2021/07/14 10:57:48;;;;;;;6.10;4.27;;;19.50;86.80;;;;;;5040059;28;20498;-87
2021/07/14 11:00:17;;;;;;;6.23;5.20;;;19.50;87.50;;;;;;5040424;28;20510;-87
2021/07/14 11:02:46;;;;;;;9.10;5.10;;;19.80;87.00;;;;;;5042880;28;20439;-85
2021/07/14 11:05:14;;;;;;;5.80;4.33;;;19.90;83.60;;;;;;5042150;28;20454;-86
2021/07/14 11:07:44;;;;;;;5.40;4.77;;;19.90;81.30;;;;;;5040545;28;20477;-85
2021/07/14 11:10:25;;;;;;;8.20;5.27;;;19.70;83.40;;;;;;5044405;28;20460;-86
2021/07/14 11:12:54;;;;;;;4.80;4.40;;;19.90;82.80;;;;;;5044981;28;20467;-85
2021/07/14 11:15:36;;;;;;;5.23;4.37;;;20.20;83.50;;;;;;5047955;28;20515;-86
2021/07/14 11:18:39;;;;;;;8.03;4.23;;;20.40;80.40;;;;;;5045529;28;20564;-85
2021/07/14 11:21:06;;;;;;;5.30;4.23;;;20.70;78.80;;;;;;5050920;28;20444;-84
2021/07/14 11:23:34;;;;;;;4.40;4.00;;;21.10;76.20;;;;;;5055126;28;20457;-85
2021/07/14 11:26:02;;;;;;;4.60;3.80;;;21.20;73.00;;;;;;5053504;28;20464;-85
2021/07/14 11:28:33;;;;;;;3.20;3.00;;;21.20;75.90;;;;;;5052352;28;20436;-84
2021/07/14 11:31:10;;;;;;;3.33;3.13;;;21.20;71.10;;;;;;5054244;28;20593;-83
2021/07/14 11:33:39;;;;;;;7.30;3.37;;;21.20;70.60;;;;;;5053801;28;20556;-83
2021/07/14 11:36:09;;;;;;;3.97;3.57;;;21.20;71.80;;;;;;5054033;28;20455;-86
2021/07/14 11:38:46;;;;;;;3.97;3.77;;;21.20;71.30;;;;;;5054669;28;20449;-85
2021/07/14 11:41:23;;;;;;;6.63;3.50;;;21.10;71.50;;;;;;5053425;28;20454;-85
2021/07/14 11:43:54;;;;;;;4.77;3.33;;;21.00;68.70;;;;;;5058519;28;20461;-85
2021/07/14 11:46:25;;;;;;;4.40;3.70;;;20.80;70.20;;;;;;5059390;28;20436;-85
2021/07/14 11:49:01;;;;;;;4.63;3.50;;;20.70;71.90;;;;;;5059415;28;20548;-81
2021/07/14 11:51:29;;;;;;;4.80;3.40;;;20.70;72.70;;;;;;5057732;28;20533;-83
2021/07/14 11:53:58;;;;;;;6.37;3.50;;;21.00;72.80;;;;;;5053613;28;20561;-84
2021/07/14 11:56:38;;;;;;;3.17;2.97;;;21.20;70.70;;;;;;5051223;28;20468;-83
2021/07/14 11:59:11;;;;;;;3.97;2.77;;;21.20;68.90;;;;;;5055991;28;20505;-83
2021/07/14 12:02:02;;;;;;;4.03;3.63;;;21.30;69.00;;;;;;5058491;28;20927;-82
2021/07/14 12:04:32;;;;;;;3.53;2.73;;;21.30;69.00;;;;;;5057947;28;20656;-85
2021/07/14 12:07:05;;;;;;;3.97;3.57;;;21.20;68.90;;;;;;5049659;28;20461;-86
2021/07/14 12:09:37;;;;;;;4.53;2.50;;;21.20;68.90;;;;;;5050766;28;20484;-84
2021/07/14 12:12:07;;;;;;;4.80;2.80;;;21.20;69.60;;;;;;5047367;28;20437;-85
2021/07/14 12:14:38;;;;;;;3.73;3.33;;;21.40;67.50;;;;;;5042231;28;20468;-87
2021/07/14 12:17:08;;;;;;;3.73;2.97;;;21.40;68.10;;;;;;5049326;28;20492;-86
2021/07/14 12:19:37;;;;;;;4.80;2.77;;;21.50;69.20;;;;;;5046868;28;20516;-83
2021/07/14 12:22:07;;;;;;;5.27;3.10;;;21.70;67.30;;;;;;5046253;28;20487;-86
2021/07/14 12:24:40;;;;;;;3.67;3.37;;;21.60;66.00;;;;;;5044529;28;20452;-83
2021/07/14 12:27:12;;;;;;;3.93;3.63;;;21.30;66.20;;;;;;5045902;28;20460;-82
2021/07/14 12:29:41;;;;;;;6.07;3.67;;;21.10;68.80;;;;;;5045767;28;20557;-82
2021/07/14 12:32:08;;;;;;;2.97;2.73;;;21.30;70.00;;;;;;5044340;28;21051;-81
2021/07/14 12:34:37;;;;;;;4.33;2.97;;;21.50;69.20;;;;;;5062791;28;20459;-83
2021/07/14 12:37:06;;;;;;;3.93;2.80;;;21.60;66.30;;;;;;5072512;28;20554;-81
2021/07/14 12:39:35;;;;;;;3.00;2.80;;;21.70;66.00;;;;;;5075548;28;20455;-83
2021/07/14 12:42:05;;;;;;;3.03;2.83;;;21.60;65.20;;;;;;5078266;28;20482;-80
2021/07/14 12:44:33;;;;;;;3.67;3.10;;;21.50;66.30;;;;;;5076671;28;20579;-83
2021/07/14 12:47:18;;;;;;;6.67;3.13;;;21.30;64.80;;;;;;5075034;28;20445;-81
2021/07/14 12:49:47;;;;;;;2.83;2.63;;;21.20;65.50;;;;;;5077944;28;20467;-82
2021/07/14 12:52:16;;;;;;;3.27;3.03;;;21.20;66.80;;;;;;5078253;28;20479;-81
2021/07/14 12:54:44;;;;;;;2.70;2.43;;;21.40;65.80;;;;;;5075466;28;20462;-82
2021/07/14 12:57:28;;;;;;;2.60;2.40;;;21.40;62.80;;;;;;5071258;28;20515;-80
2021/07/14 12:59:57;;;;;;;3.50;2.50;;;21.20;64.20;;;;;;5071235;28;20476;-81
2021/07/14 13:02:28;;;;;;;3.17;2.70;;;21.30;60.90;;;;;;5067221;28;20483;-81
2021/07/14 13:04:59;;;;;;;2.63;2.30;;;21.40;60.90;;;;;;5064128;28;20498;-82